Time;durP1;ratioP1;P1;durP2;ratioP2;P2;SDS_P1;SDS_P2;PMS_P1;PMS_P2;Temp;Humidity;BMP_temperature;BMP_pressure;BME280_temperature;BME280_humidity;BME280_pressure;Samples;Min_cycle;Max_cycle;Signal;HPM_P1;HPM_P2
2020/12/15 00:00:07;;;;;;;16.95;15.25;;;6.50;99.90;;;;;;5041850;28;20556;-71
2020/12/15 00:02:34;;;;;;;16.10;14.68;;;6.60;99.90;;;;;;5042475;28;20104;-70
2020/12/15 00:05:00;;;;;;;17.05;15.63;;;6.60;99.90;;;;;;5061816;28;20125;-70
2020/12/15 00:07:28;;;;;;;16.42;15.02;;;6.70;99.90;;;;;;5062130;28;20052;-70
2020/12/15 00:09:54;;;;;;;16.23;14.90;;;6.70;99.90;;;;;;5029535;28;20052;-71
2020/12/15 00:12:20;;;;;;;18.23;16.63;;;6.60;99.90;;;;;;5063656;28;20139;-72
2020/12/15 00:14:47;;;;;;;18.77;16.83;;;6.70;99.90;;;;;;5064001;28;20044;-71
2020/12/15 00:17:13;;;;;;;16.45;15.05;;;6.60;99.90;;;;;;5063758;28;20044;-70
2020/12/15 00:19:40;;;;;;;17.00;15.50;;;6.60;99.90;;;;;;5063128;28;20064;-70
2020/12/15 00:22:06;;;;;;;16.05;14.63;;;6.60;99.90;;;;;;5047594;28;20055;-70
2020/12/15 00:24:33;;;;;;;15.70;14.25;;;6.50;99.90;;;;;;5062903;28;20708;-71
2020/12/15 00:27:00;;;;;;;18.02;16.17;;;6.60;99.90;;;;;;5053704;28;20049;-71
2020/12/15 00:29:26;;;;;;;17.13;15.63;;;6.60;99.90;;;;;;5064274;28;20155;-70
2020/12/15 00:31:53;;;;;;;17.60;15.85;;;6.60;99.90;;;;;;5061573;28;20044;-70
2020/12/15 00:34:19;;;;;;;17.13;15.50;;;6.60;99.90;;;;;;5064514;28;20079;-71
2020/12/15 00:36:45;;;;;;;16.50;14.90;;;6.60;99.90;;;;;;5045042;28;20048;-71
2020/12/15 00:39:12;;;;;;;16.58;15.13;;;6.50;99.90;;;;;;5062778;28;20041;-71
2020/12/15 00:41:39;;;;;;;21.30;15.95;;;6.50;99.90;;;;;;5062259;28;20045;-70
2020/12/15 00:44:06;;;;;;;17.00;15.55;;;6.60;99.90;;;;;;5046492;28;20139;-71
2020/12/15 00:46:32;;;;;;;18.05;16.45;;;6.60;99.90;;;;;;5061219;28;20583;-71
2020/12/15 00:48:59;;;;;;;16.65;15.18;;;6.60;99.90;;;;;;5062985;28;20048;-70
2020/12/15 00:51:25;;;;;;;17.92;16.33;;;6.60;99.90;;;;;;5045426;28;20536;-71
2020/12/15 00:53:52;;;;;;;19.60;17.55;;;6.50;99.90;;;;;;5045323;28;20048;-71
2020/12/15 00:56:21;;;;;;;16.73;15.13;;;6.60;99.90;;;;;;5053900;28;20048;-70
2020/12/15 00:58:48;;;;;;;17.50;15.98;;;6.60;99.90;;;;;;5062336;28;20423;-71
2020/12/15 01:01:15;;;;;;;16.08;14.65;;;6.60;99.90;;;;;;5060683;28;20095;-71
2020/12/15 01:03:42;;;;;;;15.52;14.10;;;6.80;99.90;;;;;;5079776;28;20088;-71
2020/12/15 01:06:11;;;;;;;16.73;15.00;;;6.80;99.90;;;;;;5061975;28;20056;-71
2020/12/15 01:08:39;;;;;;;16.25;14.75;;;6.80;99.90;;;;;;5079665;28;20075;-70
2020/12/15 01:11:15;;;;;;;17.13;15.55;;;6.80;99.90;;;;;;5062261;28;20556;-71
2020/12/15 01:13:42;;;;;;;15.90;14.40;;;6.80;99.90;;;;;;5045296;28;20601;-71
2020/12/15 01:16:09;;;;;;;16.05;14.55;;;6.80;99.90;;;;;;5046731;28;20056;-71
2020/12/15 01:18:39;;;;;;;17.27;15.75;;;6.80;99.90;;;;;;5029385;28;20052;-70
2020/12/15 01:21:11;;;;;;;17.45;15.85;;;6.80;99.90;;;;;;5028655;28;20133;-70
2020/12/15 01:23:39;;;;;;;17.90;16.20;;;6.80;99.90;;;;;;5032111;28;20052;-70
2020/12/15 01:26:07;;;;;;;17.50;15.70;;;6.80;99.90;;;;;;5057391;28;20053;-71
2020/12/15 01:28:35;;;;;;;17.83;16.23;;;6.80;99.90;;;;;;5032107;28;20091;-71
2020/12/15 01:31:03;;;;;;;18.00;16.35;;;6.70;99.90;;;;;;5064724;28;20052;-71
2020/12/15 01:33:41;;;;;;;17.80;16.05;;;6.70;99.90;;;;;;5048853;28;20377;-71
2020/12/15 01:36:30;;;;;;;18.55;16.77;;;6.60;99.90;;;;;;5064206;28;20048;-71
2020/12/15 01:39:01;;;;;;;;;;;6.60;99.90;;;;;;5033651;28;20044;-71
2020/12/15 01:41:38;;;;;;;17.15;15.23;;;6.60;99.90;;;;;;5033411;28;19927;-71
2020/12/15 01:44:06;;;;;;;20.02;17.40;;;6.50;99.90;;;;;;5048952;28;20129;-71
2020/12/15 01:46:40;;;;;;;18.48;16.65;;;6.50;99.90;;;;;;5064716;28;20053;-71
2020/12/15 01:49:08;;;;;;;20.05;18.15;;;6.50;99.90;;;;;;5065823;28;20048;-71
2020/12/15 01:51:45;;;;;;;20.92;18.75;;;6.40;99.90;;;;;;5064366;28;20059;-71
2020/12/15 01:54:13;;;;;;;18.98;15.85;;;6.40;99.90;;;;;;5048492;28;20660;-71
2020/12/15 01:56:46;;;;;;;19.05;17.15;;;6.30;99.90;;;;;;5038999;28;20726;-71
2020/12/15 01:59:38;;;;;;;20.00;18.00;;;6.30;99.90;;;;;;5028169;28;20418;-70
2020/12/15 02:02:06;;;;;;;19.30;17.35;;;6.30;99.90;;;;;;5010770;28;20596;-71
2020/12/15 02:04:41;;;;;;;17.80;16.10;;;6.40;99.90;;;;;;5028497;28;20053;-71
2020/12/15 02:07:09;;;;;;;19.20;17.30;;;6.40;99.90;;;;;;5044220;28;20059;-71
2020/12/15 02:09:38;;;;;;;21.20;19.00;;;6.40;99.90;;;;;;5044778;28;20048;-71
2020/12/15 02:12:28;;;;;;;18.17;16.20;;;6.40;99.90;;;;;;5062227;28;20635;-71
2020/12/15 02:14:54;;;;;;;17.90;16.23;;;6.40;99.90;;;;;;5066391;28;20091;-70
2020/12/15 02:17:34;;;;;;;19.25;17.35;;;6.40;99.90;;;;;;5046061;28;20086;-71
2020/12/15 02:20:17;;;;;;;21.65;19.10;;;6.50;99.90;;;;;;5064187;28;20052;-71
2020/12/15 02:23:01;;;;;;;20.08;17.98;;;6.50;99.90;;;;;;5065318;28;20044;-71
2020/12/15 02:25:30;;;;;;;21.33;19.00;;;6.50;99.90;;;;;;5031385;28;20134;-71
2020/12/15 02:27:56;;;;;;;20.52;18.35;;;6.50;99.90;;;;;;5036867;28;20175;-70
2020/12/15 02:30:23;;;;;;;19.80;17.63;;;6.40;99.90;;;;;;5043577;28;20061;-71
2020/12/15 02:32:52;;;;;;;19.90;17.80;;;6.40;99.90;;;;;;5044960;28;20141;-71
2020/12/15 02:35:21;;;;;;;20.33;18.15;;;6.50;99.90;;;;;;5027117;28;20253;-70
2020/12/15 02:37:48;;;;;;;19.63;17.70;;;6.50;99.90;;;;;;5045178;28;20152;-70
2020/12/15 02:40:20;;;;;;;19.50;17.50;;;6.50;99.90;;;;;;5037248;28;20049;-69
2020/12/15 02:42:59;;;;;;;19.50;17.40;;;6.50;99.90;;;;;;5057592;28;20058;-70
2020/12/15 02:45:27;;;;;;;19.17;17.20;;;6.50;99.90;;;;;;5052310;28;20061;-71
2020/12/15 02:47:54;;;;;;;19.85;17.73;;;6.50;99.90;;;;;;5024934;28;20055;-71
2020/12/15 02:50:25;;;;;;;19.45;17.60;;;6.50;99.90;;;;;;5027089;28;20049;-70
2020/12/15 02:53:02;;;;;;;21.40;19.13;;;6.50;99.90;;;;;;5026902;28;20528;-72
2020/12/15 02:55:35;;;;;;;24.55;22.02;;;6.60;99.90;;;;;;5025148;28;20050;-72
2020/12/15 02:58:03;;;;;;;21.55;19.40;;;6.60;99.90;;;;;;5023429;28;20135;-72
2020/12/15 03:00:29;;;;;;;23.75;21.58;;;6.60;99.90;;;;;;5043813;28;20065;-73
2020/12/15 03:02:57;;;;;;;23.65;21.45;;;6.50;99.90;;;;;;5026781;28;20057;-74
2020/12/15 03:05:40;;;;;;;22.05;19.85;;;6.50;99.90;;;;;;5032190;28;20049;-74
2020/12/15 03:08:06;;;;;;;22.95;20.63;;;6.50;99.90;;;;;;5030927;28;20087;-74
2020/12/15 03:10:33;;;;;;;23.00;20.55;;;6.50;99.90;;;;;;5046401;28;20045;-74
2020/12/15 03:13:00;;;;;;;23.65;20.90;;;6.50;99.90;;;;;;5045710;28;20409;-73
2020/12/15 03:15:28;;;;;;;22.77;20.38;;;6.30;99.90;;;;;;5046245;28;20041;-73
2020/12/15 03:17:54;;;;;;;24.83;20.55;;;6.20;99.90;;;;;;5045626;28;20098;-73
2020/12/15 03:20:21;;;;;;;22.95;20.60;;;6.20;99.90;;;;;;5029484;28;20131;-73
2020/12/15 03:22:47;;;;;;;23.02;20.38;;;6.10;99.90;;;;;;5046706;28;20044;-72
2020/12/15 03:25:20;;;;;;;26.73;21.55;;;6.00;99.90;;;;;;5043328;28;20103;-72
2020/12/15 03:27:52;;;;;;;24.13;19.80;;;6.00;99.90;;;;;;5036502;28;20055;-73
2020/12/15 03:30:26;;;;;;;28.88;21.73;;;5.90;99.90;;;;;;5045218;28;20471;-72
2020/12/15 03:32:54;;;;;;;27.55;22.10;;;5.90;99.90;;;;;;5063642;28;20045;-72
2020/12/15 03:35:20;;;;;;;25.88;21.45;;;5.90;99.90;;;;;;5062644;28;20078;-73
2020/12/15 03:37:47;;;;;;;25.27;21.67;;;6.00;99.90;;;;;;5063407;28;20045;-73
2020/12/15 03:40:14;;;;;;;27.75;21.77;;;5.90;99.90;;;;;;5062091;28;20037;-73
2020/12/15 03:43:12;;;;;;;29.33;23.70;;;5.90;99.90;;;;;;5035501;28;20128;-73
2020/12/15 03:45:52;;;;;;;30.95;22.50;;;5.90;99.90;;;;;;5048398;28;20055;-72
2020/12/15 03:48:19;;;;;;;27.75;22.77;;;5.90;99.90;;;;;;5046755;28;20056;-72
2020/12/15 03:50:45;;;;;;;31.27;23.52;;;5.90;99.90;;;;;;5028912;28;20052;-73
2020/12/15 03:53:14;;;;;;;34.15;25.60;;;5.80;99.90;;;;;;5047177;28;20055;-73
2020/12/15 03:55:41;;;;;;;31.85;25.13;;;5.80;99.90;;;;;;5061028;28;20582;-73
2020/12/15 03:58:09;;;;;;;34.67;24.55;;;5.80;99.90;;;;;;5045339;28;20547;-73
2020/12/15 04:00:43;;;;;;;30.75;23.42;;;5.80;99.90;;;;;;5030915;28;20057;-72
2020/12/15 04:03:22;;;;;;;34.97;25.63;;;5.70;99.90;;;;;;5046519;28;20052;-73
2020/12/15 04:05:55;;;;;;;34.92;24.23;;;5.70;99.90;;;;;;5045974;28;20126;-72
2020/12/15 04:08:25;;;;;;;34.13;25.10;;;5.70;99.90;;;;;;5046932;28;20048;-73
2020/12/15 04:10:53;;;;;;;39.95;26.00;;;5.70;99.90;;;;;;5022352;28;20061;-73
2020/12/15 04:13:26;;;;;;;33.25;24.73;;;5.70;99.90;;;;;;5006452;28;20052;-73
2020/12/15 04:15:57;;;;;;;35.20;24.17;;;5.60;99.90;;;;;;5022522;28;20145;-72
2020/12/15 04:18:29;;;;;;;35.03;24.58;;;5.70;99.90;;;;;;5018033;28;20413;-73
2020/12/15 04:20:58;;;;;;;36.08;26.00;;;5.70;99.90;;;;;;5009892;28;20804;-73
2020/12/15 04:23:26;;;;;;;35.78;25.85;;;5.70;99.90;;;;;;5043341;28;20055;-73
2020/12/15 04:25:57;;;;;;;32.33;24.88;;;5.70;99.90;;;;;;5051507;28;20057;-73
2020/12/15 04:28:32;;;;;;;33.67;25.00;;;5.70;99.90;;;;;;5033952;28;20049;-72
2020/12/15 04:30:58;;;;;;;33.22;23.88;;;5.70;99.90;;;;;;5059232;28;20754;-73
2020/12/15 04:33:25;;;;;;;33.65;24.92;;;5.60;99.90;;;;;;5026409;28;20071;-73
2020/12/15 04:35:53;;;;;;;36.58;26.48;;;5.70;99.90;;;;;;5061834;28;20539;-73
2020/12/15 04:38:21;;;;;;;38.03;24.95;;;5.70;99.90;;;;;;5046731;28;20060;-72
2020/12/15 04:40:51;;;;;;;38.13;24.65;;;5.70;99.90;;;;;;5045844;28;20037;-73
2020/12/15 04:43:21;;;;;;;41.45;27.13;;;5.80;99.90;;;;;;5029712;28;20080;-74
2020/12/15 04:45:51;;;;;;;38.30;28.00;;;5.70;99.90;;;;;;5026085;28;20532;-74
2020/12/15 04:48:24;;;;;;;38.42;26.50;;;5.70;99.90;;;;;;5039023;28;20119;-73
2020/12/15 04:51:08;;;;;;;37.92;25.63;;;5.70;99.90;;;;;;5065964;28;20058;-73
2020/12/15 04:53:45;;;;;;;38.88;27.10;;;5.70;99.90;;;;;;5031523;28;20037;-73
2020/12/15 04:56:28;;;;;;;32.65;25.13;;;5.70;99.90;;;;;;5051494;28;20128;-73
2020/12/15 04:59:10;;;;;;;34.88;24.92;;;5.70;99.90;;;;;;5065774;28;20060;-73
2020/12/15 05:01:40;;;;;;;37.90;26.10;;;5.70;99.90;;;;;;5049341;28;20773;-72
2020/12/15 05:04:17;;;;;;;40.72;27.23;;;5.70;99.90;;;;;;5031002;28;20508;-73
2020/12/15 05:06:55;;;;;;;41.83;27.27;;;5.70;99.90;;;;;;5014062;28;20136;-73
2020/12/15 05:09:29;;;;;;;45.45;26.77;;;5.70;99.90;;;;;;5029316;28;20052;-73
2020/12/15 05:11:59;;;;;;;38.28;25.52;;;5.70;99.90;;;;;;5028914;28;20057;-73
2020/12/15 05:14:32;;;;;;;37.92;26.80;;;5.70;99.90;;;;;;5029829;28;20135;-73
2020/12/15 05:16:59;;;;;;;37.00;26.50;;;5.70;99.90;;;;;;5029028;28;20126;-73
2020/12/15 05:19:45;;;;;;;43.05;28.77;;;5.70;99.90;;;;;;5065640;28;20277;-73
2020/12/15 05:22:21;;;;;;;45.30;28.13;;;5.60;99.90;;;;;;5033678;28;20669;-73
2020/12/15 05:24:50;;;;;;;40.80;26.58;;;5.70;99.90;;;;;;5049387;28;20131;-73
2020/12/15 05:27:29;;;;;;;42.95;28.05;;;5.70;99.90;;;;;;5026170;28;20043;-73
2020/12/15 05:30:11;;;;;;;41.10;28.17;;;5.70;99.90;;;;;;5052015;28;20049;-73
2020/12/15 05:33:15;;;;;;;35.97;25.40;;;5.80;99.90;;;;;;5011582;28;20049;-73
2020/12/15 05:36:22;;;;;;;41.80;27.33;;;5.70;99.90;;;;;;4974531;28;20542;-72
2020/12/15 05:39:14;;;;;;;42.25;27.35;;;5.70;99.90;;;;;;5056468;28;20563;-73
2020/12/15 05:42:00;;;;;;;39.80;27.00;;;5.80;99.90;;;;;;5047666;28;20045;-73
2020/12/15 05:44:27;;;;;;;41.03;26.58;;;5.70;99.90;;;;;;5064490;28;20057;-73
2020/12/15 05:47:03;;;;;;;39.42;27.65;;;5.70;99.90;;;;;;5063654;28;20516;-73
2020/12/15 05:49:33;;;;;;;43.88;29.10;;;5.80;99.90;;;;;;5048048;28;20454;-72
2020/12/15 05:52:00;;;;;;;44.28;26.75;;;5.80;99.90;;;;;;5063716;28;20048;-73
2020/12/15 05:54:30;;;;;;;43.85;28.48;;;5.80;99.90;;;;;;5064656;28;20048;-72
2020/12/15 05:57:06;;;;;;;42.17;27.80;;;5.80;99.90;;;;;;5043524;28;20044;-72
2020/12/15 05:59:36;;;;;;;45.47;28.60;;;5.80;99.90;;;;;;5041382;28;20079;-73
2020/12/15 06:02:10;;;;;;;42.30;27.90;;;5.70;99.90;;;;;;5046816;28;20045;-73
2020/12/15 06:04:38;;;;;;;41.90;27.65;;;5.70;99.90;;;;;;5064759;28;20060;-73
2020/12/15 06:07:07;;;;;;;41.65;26.98;;;5.70;99.90;;;;;;5065678;28;20063;-72
2020/12/15 06:09:34;;;;;;;44.13;28.73;;;5.70;99.90;;;;;;5066816;28;20052;-73
2020/12/15 06:12:02;;;;;;;45.97;28.10;;;5.70;99.90;;;;;;5063837;28;20055;-72
2020/12/15 06:14:28;;;;;;;40.58;26.73;;;5.70;99.90;;;;;;5047455;28;20045;-72
2020/12/15 06:16:55;;;;;;;40.58;27.13;;;5.60;99.90;;;;;;5063608;28;20044;-72
2020/12/15 06:19:26;;;;;;;40.13;26.88;;;5.70;99.90;;;;;;5031685;28;20056;-73
2020/12/15 06:21:56;;;;;;;41.80;27.48;;;5.70;99.90;;;;;;5046882;28;20059;-72
2020/12/15 06:24:27;;;;;;;39.80;25.23;;;5.70;99.90;;;;;;5065808;28;20123;-72
2020/12/15 06:26:56;;;;;;;43.22;27.48;;;5.70;99.90;;;;;;5058713;28;20080;-72
2020/12/15 06:29:30;;;;;;;38.28;26.08;;;5.70;99.90;;;;;;5029929;28;20044;-72
2020/12/15 06:31:56;;;;;;;43.53;29.13;;;5.60;99.90;;;;;;5062415;28;20059;-72
2020/12/15 06:34:27;;;;;;;39.53;28.52;;;5.70;99.90;;;;;;5063239;28;20500;-72
2020/12/15 06:36:55;;;;;;;41.03;27.42;;;5.70;99.90;;;;;;5062654;28;20043;-72
2020/12/15 06:39:24;;;;;;;42.47;28.30;;;5.70;99.90;;;;;;5030668;28;20199;-72
2020/12/15 06:42:02;;;;;;;39.78;26.65;;;5.70;99.90;;;;;;5062750;28;20041;-72
2020/12/15 06:44:34;;;;;;;40.20;26.13;;;5.70;99.90;;;;;;5063687;28;20087;-72
2020/12/15 06:47:03;;;;;;;39.53;27.05;;;5.70;99.90;;;;;;5029208;28;20055;-72
2020/12/15 06:49:34;;;;;;;38.42;25.85;;;5.70;99.90;;;;;;5046738;28;20086;-72
2020/12/15 06:52:06;;;;;;;39.70;27.05;;;5.70;99.90;;;;;;5062806;28;20072;-72
2020/12/15 06:54:36;;;;;;;39.67;25.85;;;5.70;99.90;;;;;;5063323;28;20044;-71
2020/12/15 06:57:08;;;;;;;36.78;26.45;;;5.70;99.90;;;;;;5058689;28;20490;-72
2020/12/15 06:59:38;;;;;;;37.90;25.10;;;5.70;99.90;;;;;;5057722;28;20044;-71
2020/12/15 07:02:12;;;;;;;40.17;27.42;;;5.70;99.90;;;;;;5063684;28;20513;-71
2020/12/15 07:04:49;;;;;;;36.90;25.15;;;5.80;99.90;;;;;;5064807;28;20528;-72
2020/12/15 07:07:16;;;;;;;37.42;25.63;;;5.80;99.90;;;;;;5062874;28;20079;-71
2020/12/15 07:09:44;;;;;;;37.05;27.05;;;5.90;99.90;;;;;;5044457;28;20052;-71
2020/12/15 07:12:15;;;;;;;34.40;22.20;;;5.80;99.90;;;;;;5059908;28;20084;-71
2020/12/15 07:14:49;;;;;;;30.92;22.40;;;5.80;99.90;;;;;;5043168;28;20059;-71
2020/12/15 07:17:16;;;;;;;32.42;21.80;;;5.80;99.90;;;;;;5051101;28;20049;-72
2020/12/15 07:19:43;;;;;;;34.33;23.23;;;5.90;99.90;;;;;;5063793;28;20059;-71
2020/12/15 07:22:09;;;;;;;31.63;21.35;;;5.80;99.90;;;;;;5062015;28;20060;-72
2020/12/15 07:24:36;;;;;;;30.52;20.85;;;5.90;99.90;;;;;;5062435;28;20059;-71
2020/12/15 07:27:03;;;;;;;30.70;21.10;;;5.90;99.90;;;;;;5028310;28;20049;-70
2020/12/15 07:29:30;;;;;;;29.38;21.50;;;5.90;99.90;;;;;;5030087;28;20044;-71
2020/12/15 07:31:56;;;;;;;30.23;20.20;;;5.80;99.90;;;;;;5012188;28;20051;-70
2020/12/15 07:34:23;;;;;;;29.92;20.50;;;5.80;99.90;;;;;;5041841;28;20192;-70
2020/12/15 07:36:50;;;;;;;27.30;19.38;;;5.90;99.90;;;;;;5033472;28;20130;-71
2020/12/15 07:39:17;;;;;;;30.17;20.50;;;5.90;99.90;;;;;;5023966;28;20136;-71
2020/12/15 07:42:00;;;;;;;28.17;20.38;;;5.90;99.90;;;;;;5052178;28;20041;-71
2020/12/15 07:44:41;;;;;;;24.40;18.83;;;5.90;99.90;;;;;;5043009;28;20147;-72
2020/12/15 07:47:08;;;;;;;30.42;19.50;;;5.80;99.90;;;;;;5042630;28;20099;-72
2020/12/15 07:49:34;;;;;;;23.98;19.35;;;5.70;99.90;;;;;;5046206;28;20139;-71
2020/12/15 07:52:01;;;;;;;24.42;18.65;;;5.80;99.90;;;;;;5061668;28;20425;-71
2020/12/15 07:54:27;;;;;;;25.90;19.75;;;5.80;99.90;;;;;;5064663;28;20656;-72
2020/12/15 07:56:59;;;;;;;27.33;19.48;;;5.70;99.90;;;;;;5051507;28;20132;-71
2020/12/15 07:59:25;;;;;;;26.60;19.67;;;5.70;99.90;;;;;;5010652;28;20037;-71
2020/12/15 08:01:51;;;;;;;27.25;19.98;;;5.80;99.90;;;;;;5040006;28;20417;-70
2020/12/15 08:04:19;;;;;;;29.13;19.77;;;5.70;99.90;;;;;;5044402;28;20178;-71
2020/12/15 08:06:47;;;;;;;23.95;18.30;;;5.70;99.90;;;;;;5026008;28;20362;-70
2020/12/15 08:09:15;;;;;;;29.48;20.55;;;5.70;99.90;;;;;;5042684;28;20061;-69
2020/12/15 08:11:47;;;;;;;25.17;18.70;;;5.70;99.90;;;;;;5043090;28;20111;-70
2020/12/15 08:14:14;;;;;;;26.42;18.50;;;5.70;99.90;;;;;;5026486;28;20490;-70
2020/12/15 08:16:42;;;;;;;25.88;19.25;;;5.70;99.90;;;;;;5039204;28;20638;-71
2020/12/15 08:19:10;;;;;;;26.10;19.08;;;5.70;99.90;;;;;;5046075;28;20051;-70
2020/12/15 08:21:40;;;;;;;27.15;18.73;;;5.70;99.90;;;;;;5062389;28;20044;-70
2020/12/15 08:24:12;;;;;;;26.95;19.73;;;5.70;99.90;;;;;;5066083;28;20049;-70
2020/12/15 08:26:40;;;;;;;23.73;18.15;;;5.70;99.90;;;;;;5058901;28;20045;-70
2020/12/15 08:29:10;;;;;;;23.95;17.10;;;5.70;99.90;;;;;;5066544;28;20055;-70
2020/12/15 08:31:44;;;;;;;20.23;16.27;;;5.70;99.90;;;;;;5062669;28;20060;-71
2020/12/15 08:34:18;;;;;;;25.15;16.95;;;5.70;99.90;;;;;;5049495;28;20121;-71
2020/12/15 08:36:45;;;;;;;25.13;17.40;;;5.80;99.90;;;;;;5066376;28;20424;-71
2020/12/15 08:39:13;;;;;;;25.65;20.35;;;5.80;99.90;;;;;;5066656;28;20465;-71
2020/12/15 08:41:51;;;;;;;24.88;19.00;;;5.80;99.90;;;;;;5067538;28;20201;-71
2020/12/15 08:44:18;;;;;;;23.67;17.67;;;5.90;99.90;;;;;;5068058;28;20115;-71
2020/12/15 08:46:45;;;;;;;27.58;17.23;;;6.00;99.90;;;;;;5065384;28;20064;-71
2020/12/15 08:49:13;;;;;;;23.50;17.23;;;6.00;99.90;;;;;;5066297;28;20049;-70
2020/12/15 08:51:42;;;;;;;25.83;18.23;;;6.10;99.90;;;;;;5066113;28;20051;-71
2020/12/15 08:54:09;;;;;;;24.40;16.52;;;6.00;99.90;;;;;;5065919;28;20040;-71
2020/12/15 08:56:35;;;;;;;22.58;16.30;;;6.10;99.90;;;;;;5065138;28;20512;-71
2020/12/15 08:59:15;;;;;;;29.52;18.20;;;6.10;99.90;;;;;;5067309;28;20252;-71
2020/12/15 09:01:42;;;;;;;22.90;16.67;;;6.10;99.90;;;;;;5048832;28;20482;-72
2020/12/15 09:04:10;;;;;;;24.02;17.13;;;6.20;99.90;;;;;;5033126;28;20048;-72
2020/12/15 09:06:38;;;;;;;27.17;17.60;;;6.10;99.90;;;;;;5067266;28;20052;-70
2020/12/15 09:09:08;;;;;;;27.63;18.38;;;6.20;99.90;;;;;;5067846;28;20052;-72
2020/12/15 09:11:35;;;;;;;24.42;18.05;;;6.30;99.90;;;;;;5048407;28;20044;-71
2020/12/15 09:14:04;;;;;;;25.00;18.95;;;6.30;99.90;;;;;;5065443;28;20649;-73
2020/12/15 09:16:38;;;;;;;24.48;17.90;;;6.40;99.90;;;;;;5031526;28;20048;-74
2020/12/15 09:19:19;;;;;;;23.13;18.02;;;6.40;99.90;;;;;;5048779;28;20168;-73
2020/12/15 09:22:04;;;;;;;24.50;18.05;;;6.50;99.90;;;;;;5047436;28;20394;-74
2020/12/15 09:24:34;;;;;;;24.83;19.08;;;6.60;99.90;;;;;;5065620;28;20131;-75
2020/12/15 09:27:00;;;;;;;21.95;17.25;;;6.50;99.90;;;;;;5023814;28;20523;-74
2020/12/15 09:29:27;;;;;;;24.83;18.73;;;6.50;99.90;;;;;;5029406;28;20048;-73
2020/12/15 09:31:55;;;;;;;26.75;19.52;;;6.50;99.90;;;;;;5028220;28;20055;-72
2020/12/15 09:34:22;;;;;;;28.27;20.02;;;6.50;99.90;;;;;;5059253;28;20086;-74
2020/12/15 09:36:57;;;;;;;30.00;17.73;;;6.50;99.90;;;;;;5066555;28;20055;-72
2020/12/15 09:39:27;;;;;;;;;;;6.40;99.90;;;;;;5066386;28;20051;-75
2020/12/15 09:42:03;;;;;;;28.67;17.50;;;6.50;99.90;;;;;;5065231;28;19951;-74
2020/12/15 09:44:29;;;;;;;;;;;6.50;99.90;;;;;;5065438;28;20083;-72
2020/12/15 09:46:56;;;;;;;32.53;20.45;;;6.50;99.90;;;;;;5032303;28;19931;-76
2020/12/15 09:49:22;;;;;;;26.55;17.02;;;6.50;99.90;;;;;;5067517;28;20075;-75
2020/12/15 09:51:49;;;;;;;29.55;18.85;;;6.40;99.90;;;;;;5048209;28;20044;-75
2020/12/15 09:54:15;;;;;;;29.75;19.73;;;6.50;99.90;;;;;;5065370;28;20068;-74
2020/12/15 09:56:44;;;;;;;30.35;20.95;;;6.50;99.90;;;;;;5017088;28;20037;-73
2020/12/15 09:59:16;;;;;;;28.85;20.90;;;6.50;99.90;;;;;;5056083;28;20052;-73
2020/12/15 10:01:43;;;;;;;26.63;18.80;;;6.60;99.90;;;;;;5047842;28;20520;-75
2020/12/15 10:04:10;;;;;;;26.27;18.52;;;6.40;99.90;;;;;;5047317;28;20098;-74
2020/12/15 10:06:36;;;;;;;26.83;19.17;;;6.40;99.90;;;;;;5047577;28;20051;-74
2020/12/15 10:09:04;;;;;;;29.45;20.27;;;6.50;99.90;;;;;;5030578;28;20041;-73
2020/12/15 10:11:30;;;;;;;25.25;18.98;;;6.40;99.90;;;;;;5049370;28;20536;-73
2020/12/15 10:13:57;;;;;;;30.63;21.05;;;6.50;99.90;;;;;;5043019;28;20055;-71
2020/12/15 10:16:24;;;;;;;31.38;21.10;;;6.50;99.90;;;;;;5077559;28;20067;-70
2020/12/15 10:18:51;;;;;;;31.05;20.20;;;6.60;99.90;;;;;;5062326;28;20119;-73
2020/12/15 10:21:18;;;;;;;34.83;19.98;;;6.60;99.90;;;;;;5057659;28;20037;-72
2020/12/15 10:23:47;;;;;;;34.33;21.70;;;6.50;99.90;;;;;;5065956;28;20131;-73
2020/12/15 10:26:21;;;;;;;33.38;21.67;;;6.50;99.90;;;;;;5061623;28;20684;-72
2020/12/15 10:28:48;;;;;;;31.85;21.80;;;6.50;99.90;;;;;;5065270;28;20056;-76
2020/12/15 10:31:15;;;;;;;36.72;23.77;;;6.50;99.90;;;;;;5027462;28;20055;-77
2020/12/15 10:33:42;;;;;;;39.75;22.45;;;6.50;99.90;;;;;;5064552;28;20059;-76
2020/12/15 10:36:11;;;;;;;35.58;23.50;;;6.50;99.90;;;;;;5064342;28;20047;-76
2020/12/15 10:38:38;;;;;;;35.45;22.52;;;6.60;99.90;;;;;;5048405;28;20062;-75
2020/12/15 10:41:05;;;;;;;35.28;22.00;;;6.50;99.90;;;;;;5064488;28;20132;-77
2020/12/15 10:43:31;;;;;;;36.03;22.70;;;6.60;99.90;;;;;;5047161;28;20475;-76
2020/12/15 10:45:58;;;;;;;37.70;23.38;;;6.50;99.90;;;;;;5046826;28;20071;-76
2020/12/15 10:48:25;;;;;;;34.90;22.45;;;6.50;99.90;;;;;;5064816;28;20428;-77
2020/12/15 10:50:51;;;;;;;38.83;22.90;;;6.60;99.90;;;;;;5056584;28;20083;-77
2020/12/15 10:53:18;;;;;;;36.80;22.80;;;6.60;99.90;;;;;;5058384;28;20052;-73
2020/12/15 10:55:49;;;;;;;33.45;22.27;;;6.50;99.90;;;;;;5038464;28;20508;-73
2020/12/15 10:58:16;;;;;;;37.47;22.35;;;6.60;99.90;;;;;;5053411;28;20794;-74
2020/12/15 11:00:42;;;;;;;39.47;24.30;;;6.60;99.90;;;;;;5050223;28;20801;-73
2020/12/15 11:03:08;;;;;;;37.13;22.13;;;6.60;99.90;;;;;;5062884;28;20048;-72
2020/12/15 11:05:35;;;;;;;33.75;23.05;;;6.80;99.90;;;;;;5064218;28;20041;-73
2020/12/15 11:08:01;;;;;;;36.95;22.88;;;6.80;99.90;;;;;;5046811;28;20066;-74
2020/12/15 11:10:28;;;;;;;35.95;22.75;;;6.70;99.90;;;;;;5030115;28;20227;-72
2020/12/15 11:12:54;;;;;;;33.90;22.13;;;6.70;99.90;;;;;;5062940;28;20174;-74
2020/12/15 11:15:20;;;;;;;33.92;21.25;;;6.60;99.90;;;;;;5064138;28;20056;-73
2020/12/15 11:17:47;;;;;;;36.58;22.50;;;6.70;99.90;;;;;;5062943;28;20559;-73
2020/12/15 11:20:13;;;;;;;30.67;20.13;;;6.80;99.90;;;;;;5045970;28;20049;-72
2020/12/15 11:22:40;;;;;;;33.63;21.00;;;6.80;99.90;;;;;;5030193;28;20049;-73
2020/12/15 11:25:07;;;;;;;34.80;21.27;;;6.80;99.90;;;;;;5060542;28;20052;-72
2020/12/15 11:27:33;;;;;;;37.58;21.52;;;6.80;99.90;;;;;;5064849;28;20071;-73
2020/12/15 11:29:59;;;;;;;33.28;22.90;;;6.80;99.90;;;;;;5049966;28;20049;-74
2020/12/15 11:32:30;;;;;;;27.58;19.30;;;6.90;99.90;;;;;;5059510;28;20148;-72
2020/12/15 11:34:57;;;;;;;34.45;22.20;;;6.80;99.90;;;;;;5037345;28;20040;-73
2020/12/15 11:37:24;;;;;;;31.65;21.13;;;6.70;99.90;;;;;;5062058;28;20064;-73
2020/12/15 11:39:50;;;;;;;31.00;20.50;;;6.80;99.90;;;;;;5029570;28;20044;-73
2020/12/15 11:42:16;;;;;;;38.03;24.13;;;6.80;99.90;;;;;;5045867;28;20052;-73
2020/12/15 11:44:52;;;;;;;28.38;21.15;;;6.70;99.90;;;;;;5047544;28;20049;-74
2020/12/15 11:47:21;;;;;;;30.20;20.80;;;6.80;99.90;;;;;;5062483;28;20135;-75
2020/12/15 11:49:48;;;;;;;35.95;23.17;;;6.80;99.90;;;;;;5061399;28;20083;-74
2020/12/15 11:52:34;;;;;;;30.92;21.17;;;6.80;99.90;;;;;;5045900;28;20048;-74
2020/12/15 11:55:01;;;;;;;35.38;23.20;;;6.90;99.90;;;;;;5063083;28;20048;-73
2020/12/15 11:57:27;;;;;;;36.97;23.38;;;6.90;99.90;;;;;;5048382;28;20052;-73
2020/12/15 11:59:54;;;;;;;31.88;22.90;;;6.90;99.90;;;;;;5030259;28;20040;-74
2020/12/15 12:02:21;;;;;;;32.00;21.33;;;6.90;99.90;;;;;;5029447;28;20040;-74
2020/12/15 12:04:47;;;;;;;29.92;21.25;;;7.00;99.90;;;;;;5065036;28;20063;-72
2020/12/15 12:07:13;;;;;;;37.42;23.42;;;6.90;99.90;;;;;;5062417;28;20147;-73
2020/12/15 12:09:40;;;;;;;32.10;20.77;;;6.90;99.90;;;;;;5064271;28;20154;-73
2020/12/15 12:12:06;;;;;;;29.75;19.55;;;7.00;99.90;;;;;;5045707;28;20559;-73
2020/12/15 12:14:33;;;;;;;30.75;18.02;;;6.90;99.90;;;;;;5062717;28;20094;-74
2020/12/15 12:17:16;;;;;;;36.33;22.30;;;7.10;99.90;;;;;;5063370;28;20044;-72
2020/12/15 12:19:42;;;;;;;29.00;18.38;;;7.00;99.90;;;;;;5046038;28;20660;-74
2020/12/15 12:22:08;;;;;;;35.33;22.02;;;7.00;99.90;;;;;;5061757;28;20445;-74
2020/12/15 12:24:35;;;;;;;30.25;21.45;;;7.10;99.90;;;;;;5055600;28;20053;-74
2020/12/15 12:27:01;;;;;;;29.17;20.17;;;7.10;99.90;;;;;;5069385;28;20375;-73
2020/12/15 12:29:27;;;;;;;27.05;19.02;;;7.10;99.90;;;;;;5045982;28;20048;-73
2020/12/15 12:31:53;;;;;;;32.67;19.42;;;7.10;99.90;;;;;;5049112;28;20053;-73
2020/12/15 12:34:20;;;;;;;29.77;19.05;;;7.10;99.90;;;;;;5053270;28;20049;-72
2020/12/15 12:36:46;;;;;;;32.28;20.48;;;7.20;99.90;;;;;;5023098;28;20462;-72
2020/12/15 12:39:13;;;;;;;28.25;20.95;;;7.20;99.90;;;;;;5049385;28;20094;-73
2020/12/15 12:41:39;;;;;;;33.35;22.02;;;7.30;99.90;;;;;;5066532;28;20041;-73
2020/12/15 12:44:14;;;;;;;32.83;22.63;;;7.20;99.90;;;;;;5058300;28;20070;-72
2020/12/15 12:46:40;;;;;;;35.85;21.13;;;7.30;99.90;;;;;;5060337;28;20393;-73
2020/12/15 12:49:07;;;;;;;31.77;23.13;;;7.20;99.90;;;;;;5053662;28;20456;-71
2020/12/15 12:51:34;;;;;;;28.00;19.90;;;7.30;99.90;;;;;;5058165;28;20045;-74